createdAt,value
2023-02-26T00:02:01.332Z,7.71
2023-02-26T00:04:30.180Z,7.64
2023-02-26T00:06:58.618Z,7.59
2023-02-26T00:09:32.825Z,7.58
2023-02-26T00:12:01.830Z,7.55
2023-02-26T00:14:31.132Z,7.58
2023-02-26T00:17:35.929Z,7.53
2023-02-26T00:20:12.801Z,7.56
2023-02-26T00:22:42.905Z,7.54
2023-02-26T00:25:11.413Z,7.51
2023-02-26T00:27:40.901Z,7.49
2023-02-26T00:30:10.524Z,7.46
2023-02-26T00:32:39.991Z,7.47
2023-02-26T00:35:09.833Z,7.47
2023-02-26T00:37:47.726Z,7.48
2023-02-26T00:40:20.600Z,7.50
2023-02-26T00:42:50.169Z,7.50
2023-02-26T00:45:21.427Z,7.46
2023-02-26T00:47:57.162Z,7.43
2023-02-26T00:50:27.900Z,7.39
2023-02-26T00:53:09.202Z,7.38
2023-02-26T00:55:39.074Z,7.34
2023-02-26T00:58:07.058Z,7.29
2023-02-26T01:00:35.462Z,7.26
2023-02-26T01:03:04.221Z,7.22
2023-02-26T01:05:33.529Z,7.17
2023-02-26T01:08:14.647Z,7.15
2023-02-26T01:10:44.586Z,7.14
2023-02-26T01:13:14.138Z,7.12
2023-02-26T01:15:56.208Z,7.10
2023-02-26T01:18:52.443Z,7.11
2023-02-26T01:21:44.698Z,7.07
2023-02-26T01:24:16.347Z,7.02
2023-02-26T01:26:44.604Z,7.01
2023-02-26T01:29:13.213Z,6.97
2023-02-26T01:31:56.482Z,6.99
2023-02-26T01:34:45.050Z,7.03
2023-02-26T01:37:34.864Z,7.01
2023-02-26T01:40:19.160Z,6.98
2023-02-26T01:42:52.067Z,6.92
2023-02-26T01:45:45.285Z,6.88
2023-02-26T01:48:25.874Z,6.86
2023-02-26T01:50:54.534Z,6.86
2023-02-26T01:53:27.652Z,6.86
2023-02-26T01:56:02.778Z,6.87
2023-02-26T01:58:34.027Z,6.89
2023-02-26T02:01:03.547Z,6.93
2023-02-26T02:03:34.737Z,6.96
2023-02-26T02:06:07.946Z,7.00
2023-02-26T02:08:36.985Z,7.04
2023-02-26T02:11:09.378Z,7.03
2023-02-26T02:13:53.864Z,7.03
2023-02-26T02:16:46.522Z,6.96
2023-02-26T02:19:47.204Z,6.94
2023-02-26T02:22:28.109Z,6.84
2023-02-26T02:25:14.600Z,6.77
2023-02-26T02:28:01.215Z,6.73
2023-02-26T02:30:32.563Z,6.69
2023-02-26T02:33:13.381Z,6.68
2023-02-26T02:35:58.869Z,6.71
2023-02-26T02:38:35.609Z,6.71
2023-02-26T02:41:20.779Z,6.73
2023-02-26T02:43:50.473Z,6.74
2023-02-26T02:46:27.599Z,6.69
2023-02-26T02:49:00.108Z,6.72
2023-02-26T02:52:07.525Z,6.81
2023-02-26T02:54:42.160Z,6.85
2023-02-26T02:57:16.672Z,6.85
2023-02-26T02:59:47.748Z,6.91
2023-02-26T03:02:27.738Z,6.92
2023-02-26T03:04:56.437Z,6.93
2023-02-26T03:07:45.508Z,6.93
2023-02-26T03:10:14.643Z,6.93
2023-02-26T03:12:42.784Z,6.90
2023-02-26T03:15:11.911Z,6.92
2023-02-26T03:17:52.635Z,6.93
2023-02-26T03:20:28.941Z,6.93
2023-02-26T03:23:09.984Z,6.95
2023-02-26T03:25:52.612Z,7.00
2023-02-26T03:28:32.199Z,7.02
2023-02-26T03:31:22.491Z,7.09
2023-02-26T03:34:18.206Z,7.12
2023-02-26T03:36:51.333Z,7.12
2023-02-26T03:39:29.705Z,7.12
2023-02-26T03:42:09.883Z,7.14
2023-02-26T03:44:44.973Z,7.12
2023-02-26T03:47:15.211Z,7.13
2023-02-26T03:49:48.366Z,7.07
2023-02-26T03:52:19.884Z,7.07
2023-02-26T03:55:02.756Z,7.04
2023-02-26T03:57:31.104Z,7.01
2023-02-26T03:59:59.512Z,7.02
2023-02-26T04:02:59.587Z,7.03
2023-02-26T04:05:34.147Z,7.03
2023-02-26T04:08:03.516Z,6.99
2023-02-26T04:10:38.880Z,6.96
2023-02-26T04:13:08.461Z,6.95
2023-02-26T04:15:36.331Z,6.90
2023-02-26T04:18:04.908Z,6.89
2023-02-26T04:20:34.176Z,6.91
2023-02-26T04:23:02.709Z,6.89
2023-02-26T04:25:33.498Z,6.88
2023-02-26T04:28:01.647Z,6.90
2023-02-26T04:30:46.092Z,6.90
2023-02-26T04:33:16.513Z,6.89
2023-02-26T04:35:44.531Z,6.90
2023-02-26T04:38:12.956Z,6.95
2023-02-26T04:40:41.536Z,6.94
2023-02-26T04:43:11.344Z,6.93
2023-02-26T04:45:42.391Z,6.90
2023-02-26T04:48:11.889Z,6.86
2023-02-26T04:50:40.382Z,6.81
2023-02-26T04:53:08.698Z,6.76
2023-02-26T04:55:37.480Z,6.72
2023-02-26T04:58:09.182Z,6.73
2023-02-26T05:00:37.818Z,6.67
2023-02-26T05:03:06.156Z,6.65
2023-02-26T05:05:34.214Z,6.64
2023-02-26T05:08:02.608Z,6.62
2023-02-26T05:10:31.525Z,6.61
2023-02-26T05:13:00.222Z,6.61
2023-02-26T05:15:28.536Z,6.60
2023-02-26T05:17:57.100Z,6.60
2023-02-26T05:20:25.715Z,6.58
2023-02-26T05:22:54.452Z,6.59
2023-02-26T05:25:23.192Z,6.58
2023-02-26T05:27:54.653Z,6.55
2023-02-26T05:30:24.134Z,6.54
2023-02-26T05:32:55.151Z,6.50
2023-02-26T05:35:27.305Z,6.48
2023-02-26T05:37:55.660Z,6.44
2023-02-26T05:40:24.271Z,6.47
2023-02-26T05:42:52.532Z,6.47
2023-02-26T05:45:21.689Z,6.49
2023-02-26T05:47:52.272Z,6.50
2023-02-26T05:50:20.328Z,6.52
2023-02-26T05:52:49.446Z,6.54
2023-02-26T05:55:22.141Z,6.55
2023-02-26T05:57:53.819Z,6.52
2023-02-26T06:00:27.981Z,6.53
2023-02-26T06:02:56.078Z,6.52
2023-02-26T06:05:27.868Z,6.52
2023-02-26T06:07:56.367Z,6.52
2023-02-26T06:10:25.056Z,6.49
2023-02-26T06:12:54.053Z,6.52
2023-02-26T06:15:22.524Z,6.46
2023-02-26T06:17:50.856Z,6.40
2023-02-26T06:20:19.051Z,6.33
2023-02-26T06:22:50.114Z,6.33
2023-02-26T06:25:23.443Z,6.29
2023-02-26T06:27:53.734Z,6.28
2023-02-26T06:30:24.120Z,6.32
2023-02-26T06:32:52.980Z,6.34
2023-02-26T06:35:21.802Z,6.32
2023-02-26T06:37:53.565Z,6.33
2023-02-26T06:40:22.068Z,6.38
2023-02-26T06:42:50.447Z,6.40
2023-02-26T06:45:18.610Z,6.42
2023-02-26T06:47:46.737Z,6.43
2023-02-26T06:50:15.446Z,6.43
2023-02-26T06:52:45.259Z,6.49
2023-02-26T06:55:14.138Z,6.47
2023-02-26T06:57:42.985Z,6.46
2023-02-26T07:00:13.430Z,6.48
2023-02-26T07:02:41.905Z,6.48
2023-02-26T07:05:11.678Z,6.44
2023-02-26T07:07:41.710Z,6.45
2023-02-26T07:10:12.130Z,6.46
2023-02-26T07:12:40.853Z,6.43
2023-02-26T07:15:09.695Z,6.40
2023-02-26T07:17:41.533Z,6.36
2023-02-26T07:20:10.946Z,6.33
2023-02-26T07:22:39.264Z,6.33
2023-02-26T07:25:08.605Z,6.35
2023-02-26T07:27:38.293Z,6.33
2023-02-26T07:30:08.081Z,6.34
2023-02-26T07:32:36.930Z,6.33
2023-02-26T07:35:11.485Z,6.29
2023-02-26T07:37:51.047Z,6.32
2023-02-26T07:40:19.890Z,6.37
2023-02-26T07:42:49.567Z,6.39
2023-02-26T07:45:22.964Z,6.35
2023-02-26T07:47:53.222Z,6.35
2023-02-26T07:50:21.964Z,6.43
2023-02-26T07:52:50.051Z,6.53
2023-02-26T07:55:18.837Z,6.56
2023-02-26T07:57:46.979Z,6.58
2023-02-26T08:00:16.272Z,6.59
2023-02-26T08:02:48.193Z,6.74
2023-02-26T08:05:16.028Z,6.83
2023-02-26T08:07:44.240Z,6.88
2023-02-26T08:10:13.294Z,6.90
2023-02-26T08:15:27.469Z,6.82
2023-02-26T08:17:55.621Z,6.89
2023-02-26T08:20:24.209Z,6.95
2023-02-26T08:22:53.474Z,7.10
2023-02-26T08:25:22.327Z,7.20
2023-02-26T08:27:50.545Z,7.39
2023-02-26T08:30:20.130Z,7.57
2023-02-26T08:32:51.441Z,7.74
2023-02-26T08:35:19.767Z,7.86
2023-02-26T08:37:59.159Z,7.93
2023-02-26T08:40:27.357Z,7.94
2023-02-26T08:43:00.043Z,7.95
2023-02-26T08:45:28.399Z,7.97
2023-02-26T08:47:57.478Z,7.95
2023-02-26T08:50:27.089Z,7.97
2023-02-26T08:52:55.174Z,7.90
2023-02-26T08:55:25.012Z,7.93
2023-02-26T08:57:53.955Z,7.87
2023-02-26T09:00:22.287Z,7.93
2023-02-26T09:02:50.752Z,8.05
2023-02-26T09:05:20.268Z,8.10
2023-02-26T09:07:50.664Z,8.12
2023-02-26T09:10:20.341Z,8.11
2023-02-26T09:12:49.384Z,8.17
2023-02-26T09:15:19.165Z,8.22
2023-02-26T09:17:51.941Z,8.12
2023-02-26T09:20:20.277Z,8.19
2023-02-26T09:22:50.983Z,8.12
2023-02-26T09:25:19.464Z,8.09
2023-02-26T09:27:50.155Z,8.20
2023-02-26T09:30:18.643Z,8.24
2023-02-26T09:32:50.502Z,8.34
2023-02-26T09:35:22.517Z,8.37
2023-02-26T09:37:51.871Z,8.53
2023-02-26T09:40:46.318Z,8.63
2023-02-26T09:43:52.098Z,8.66
2023-02-26T09:46:40.185Z,8.70
2023-02-26T09:49:28.087Z,8.70
2023-02-26T09:52:01.712Z,8.65
2023-02-26T09:55:26.711Z,8.65
2023-02-26T09:58:07.333Z,8.70
2023-02-26T10:00:58.554Z,8.68
2023-02-26T10:03:37.482Z,8.63
2023-02-26T10:06:21.248Z,8.45
2023-02-26T10:09:00.861Z,8.51
2023-02-26T10:12:03.802Z,8.52
2023-02-26T10:14:49.452Z,8.68
2023-02-26T10:17:23.840Z,8.83
2023-02-26T10:19:56.463Z,8.94
2023-02-26T10:22:49.544Z,9.11
2023-02-26T10:25:26.472Z,8.92
2023-02-26T10:28:35.126Z,8.80
2023-02-26T10:31:52.765Z,8.62
2023-02-26T10:34:31.327Z,8.57
2023-02-26T10:37:11.471Z,8.45
2023-02-26T10:40:09.485Z,8.48
2023-02-26T10:42:47.403Z,8.36
2023-02-26T10:45:24.511Z,8.28
2023-02-26T10:48:10.899Z,8.23
2023-02-26T10:50:49.067Z,8.12
2023-02-26T10:53:17.245Z,8.00
2023-02-26T10:55:50.669Z,7.89
2023-02-26T10:58:25.430Z,7.98
2023-02-26T11:00:57.521Z,7.92
2023-02-26T11:03:38.787Z,7.96
2023-02-26T11:06:10.248Z,7.99
2023-02-26T11:08:47.004Z,8.04
2023-02-26T11:11:48.818Z,8.09
2023-02-26T11:14:17.651Z,8.08
2023-02-26T11:16:54.042Z,8.04
2023-02-26T11:19:32.536Z,8.19
2023-02-26T11:22:01.097Z,8.27
2023-02-26T11:24:37.517Z,8.39
2023-02-26T11:27:09.371Z,8.42
2023-02-26T11:29:48.072Z,8.54
2023-02-26T11:32:24.852Z,8.60
2023-02-26T11:34:58.942Z,8.59
2023-02-26T11:37:35.833Z,8.67
2023-02-26T11:40:38.976Z,8.57
2023-02-26T11:43:11.227Z,8.61
2023-02-26T11:45:44.980Z,8.80
2023-02-26T11:48:20.038Z,8.79
2023-02-26T11:50:50.433Z,8.73
2023-02-26T11:53:28.552Z,8.75
2023-02-26T11:56:11.750Z,8.67
2023-02-26T11:58:42.412Z,8.58
2023-02-26T12:01:13.833Z,8.59
2023-02-26T12:03:46.693Z,8.58
2023-02-26T12:06:25.160Z,8.55
2023-02-26T12:08:54.670Z,8.49
2023-02-26T12:11:56.543Z,8.33
2023-02-26T12:14:48.955Z,8.15
2023-02-26T12:17:51.016Z,7.97
2023-02-26T12:20:56.980Z,7.83
2023-02-26T12:24:01.067Z,7.70
2023-02-26T12:26:34.063Z,7.65
2023-02-26T12:29:29.612Z,7.57
2023-02-26T12:32:10.993Z,7.58
2023-02-26T12:34:48.539Z,7.56
2023-02-26T12:37:37.538Z,7.56
2023-02-26T12:40:13.230Z,7.43
2023-02-26T12:43:05.732Z,7.41
2023-02-26T12:45:48.552Z,7.40
2023-02-26T12:48:42.255Z,7.39
2023-02-26T12:51:37.329Z,7.35
2023-02-26T12:54:36.333Z,7.22
2023-02-26T12:57:27.946Z,7.24
2023-02-26T13:00:28.522Z,7.22
2023-02-26T13:03:09.755Z,7.20
2023-02-26T13:05:43.362Z,7.16
2023-02-26T13:08:18.417Z,7.16
2023-02-26T13:11:01.907Z,7.19
2023-02-26T13:13:51.803Z,7.24
2023-02-26T13:16:31.532Z,7.30
2023-02-26T13:19:09.398Z,7.26
2023-02-26T13:21:45.523Z,7.28
2023-02-26T13:24:21.338Z,7.21
2023-02-26T13:26:52.782Z,7.21
2023-02-26T13:29:25.781Z,7.19
2023-02-26T13:32:08.365Z,7.14
2023-02-26T13:34:54.642Z,7.06
2023-02-26T13:37:35.328Z,7.01
2023-02-26T13:40:26.639Z,7.00
2023-02-26T13:43:03.828Z,7.03
2023-02-26T13:45:56.380Z,7.03
2023-02-26T13:49:04.898Z,6.92
2023-02-26T13:51:37.333Z,6.80
2023-02-26T13:54:36.652Z,6.70
2023-02-26T13:57:28.537Z,6.68
2023-02-26T14:00:29.398Z,6.62
2023-02-26T14:03:14.412Z,6.52
2023-02-26T14:05:44.772Z,6.45
2023-02-26T14:08:55.565Z,6.34
2023-02-26T14:11:35.733Z,6.25
2023-02-26T14:14:18.115Z,6.21
2023-02-26T14:16:51.394Z,6.11
2023-02-26T14:19:27.650Z,6.14
2023-02-26T14:22:00.868Z,6.12
2023-02-26T14:24:38.500Z,6.13
2023-02-26T14:27:12.519Z,6.17
2023-02-26T14:29:43.108Z,6.26
2023-02-26T14:32:16.861Z,6.29
2023-02-26T14:35:00.674Z,6.33
2023-02-26T14:37:29.600Z,6.35
2023-02-26T14:40:09.488Z,6.32
2023-02-26T14:43:00.477Z,6.27
2023-02-26T14:45:39.376Z,6.20
2023-02-26T14:48:15.688Z,6.22
2023-02-26T14:50:51.421Z,6.22
2023-02-26T14:53:33.526Z,6.22
2023-02-26T14:56:34.086Z,6.10
2023-02-26T14:59:43.762Z,6.05
2023-02-26T15:02:29.449Z,5.97
2023-02-26T15:05:17.046Z,5.92
2023-02-26T15:08:27.428Z,5.91
2023-02-26T15:11:25.464Z,5.87
2023-02-26T15:14:00.308Z,5.89
2023-02-26T15:16:37.822Z,5.91
2023-02-26T15:19:15.267Z,5.92
2023-02-26T15:21:58.199Z,5.89
2023-02-26T15:24:27.627Z,5.84
2023-02-26T15:27:00.694Z,5.78
2023-02-26T15:29:36.992Z,5.74
2023-02-26T15:32:27.145Z,5.75
2023-02-26T15:34:56.960Z,5.76
2023-02-26T15:37:30.008Z,5.79
2023-02-26T15:40:00.570Z,5.79
2023-02-26T15:42:35.082Z,5.82
2023-02-26T15:45:38.495Z,5.83
2023-02-26T15:48:11.947Z,5.78
2023-02-26T15:50:43.407Z,5.76
2023-02-26T15:53:20.377Z,5.76
2023-02-26T15:55:52.256Z,5.78
2023-02-26T15:58:39.316Z,5.79
2023-02-26T16:01:10.878Z,5.81
2023-02-26T16:03:39.179Z,5.80
2023-02-26T16:06:10.231Z,5.76
2023-02-26T16:08:39.789Z,5.78
2023-02-26T16:11:08.617Z,5.81
2023-02-26T16:13:41.805Z,5.84
2023-02-26T16:16:43.782Z,5.79
2023-02-26T16:19:33.193Z,5.73
2023-02-26T16:22:05.058Z,5.69
2023-02-26T16:24:36.599Z,5.65
2023-02-26T16:27:09.393Z,5.61
2023-02-26T16:30:04.657Z,5.56
2023-02-26T16:32:37.535Z,5.55
2023-02-26T16:35:12.848Z,5.55
2023-02-26T16:37:45.925Z,5.54
2023-02-26T16:40:26.286Z,5.52
2023-02-26T16:43:06.684Z,5.51
2023-02-26T16:45:37.955Z,5.46
2023-02-26T16:48:24.308Z,5.36
2023-02-26T16:51:02.093Z,5.25
2023-02-26T16:53:34.976Z,5.21
2023-02-26T16:56:04.867Z,5.17
2023-02-26T16:58:33.780Z,5.14
2023-02-26T17:01:09.453Z,5.05
2023-02-26T17:03:38.946Z,5.05
2023-02-26T17:06:12.225Z,5.04
2023-02-26T17:09:00.390Z,5.06
2023-02-26T17:11:35.843Z,5.09
2023-02-26T17:14:27.770Z,5.11
2023-02-26T17:16:57.104Z,5.13
2023-02-26T17:19:30.149Z,5.07
2023-02-26T17:21:59.573Z,5.06
2023-02-26T17:24:34.921Z,5.06
2023-02-26T17:27:04.750Z,5.03
2023-02-26T17:29:38.480Z,4.94
2023-02-26T17:32:08.205Z,4.95
2023-02-26T17:34:36.445Z,4.94
2023-02-26T17:37:10.899Z,4.94
2023-02-26T17:39:39.377Z,4.94
2023-02-26T17:42:19.736Z,4.93
2023-02-26T17:44:48.840Z,4.94
2023-02-26T17:47:23.324Z,4.91
2023-02-26T17:49:54.341Z,4.88
2023-02-26T17:52:22.246Z,4.88
2023-02-26T17:54:53.358Z,4.84
2023-02-26T17:57:22.492Z,4.85
2023-02-26T17:59:50.749Z,4.83
2023-02-26T18:02:23.661Z,4.75
2023-02-26T18:04:52.899Z,4.82
2023-02-26T18:07:22.083Z,4.80
2023-02-26T18:09:56.041Z,4.67
2023-02-26T18:12:25.021Z,4.64
2023-02-26T18:14:53.157Z,4.70
2023-02-26T18:17:25.698Z,4.74
2023-02-26T18:19:54.936Z,4.67
2023-02-26T18:22:27.917Z,4.56
2023-02-26T18:25:16.641Z,4.62
2023-02-26T18:27:48.752Z,4.58
2023-02-26T18:30:24.630Z,4.52
2023-02-26T18:32:53.485Z,4.56
2023-02-26T18:35:22.990Z,4.59
2023-02-26T18:37:52.662Z,4.58
2023-02-26T18:40:26.642Z,4.55
2023-02-26T18:42:55.311Z,4.45
2023-02-26T18:45:25.030Z,4.40
2023-02-26T18:47:54.773Z,4.33
2023-02-26T18:50:24.752Z,4.33
2023-02-26T18:52:52.795Z,4.42
2023-02-26T18:55:21.444Z,4.39
2023-02-26T18:57:49.668Z,4.38
2023-02-26T19:00:18.761Z,4.44
2023-02-26T19:02:48.925Z,4.48
2023-02-26T19:05:19.075Z,4.49
2023-02-26T19:07:49.380Z,4.44
2023-02-26T19:10:19.224Z,4.38
2023-02-26T19:12:51.241Z,4.40
2023-02-26T19:15:26.265Z,4.42
2023-02-26T19:17:54.669Z,4.45
2023-02-26T19:20:22.913Z,4.45
2023-02-26T19:22:53.467Z,4.43
2023-02-26T19:25:24.528Z,4.43
2023-02-26T19:27:53.955Z,4.45
2023-02-26T19:30:27.495Z,4.43
2023-02-26T19:32:56.307Z,4.42
2023-02-26T19:35:28.246Z,4.34
2023-02-26T19:37:57.565Z,4.44
2023-02-26T19:40:25.881Z,4.43
2023-02-26T19:42:54.121Z,4.44
2023-02-26T19:45:25.060Z,4.47
2023-02-26T19:47:53.049Z,4.47
2023-02-26T19:50:24.380Z,4.42
2023-02-26T19:52:53.264Z,4.48
2023-02-26T19:55:21.476Z,4.48
2023-02-26T19:57:50.883Z,4.49
2023-02-26T20:00:19.459Z,4.52
2023-02-26T20:02:47.688Z,4.49
2023-02-26T20:05:17.883Z,4.49
2023-02-26T20:07:46.606Z,4.43
2023-02-26T20:10:16.184Z,4.48
2023-02-26T20:12:47.791Z,4.37
2023-02-26T20:15:17.075Z,4.34
2023-02-26T20:17:45.581Z,4.33
2023-02-26T20:20:15.128Z,4.34
2023-02-26T20:22:43.474Z,4.29
2023-02-26T20:25:11.708Z,4.28
2023-02-26T20:27:41.734Z,4.25
2023-02-26T20:30:10.482Z,4.30
2023-02-26T20:32:39.207Z,4.33
2023-02-26T20:35:07.918Z,4.32
2023-02-26T20:37:39.231Z,4.31
2023-02-26T20:40:09.405Z,4.30
2023-02-26T20:42:38.841Z,4.31
2023-02-26T20:45:11.848Z,4.32
2023-02-26T20:47:44.286Z,4.32
2023-02-26T20:50:13.508Z,4.32
2023-02-26T20:52:42.280Z,4.32
2023-02-26T20:55:10.494Z,4.35
2023-02-26T20:57:39.102Z,4.39
2023-02-26T21:00:11.543Z,4.35
2023-02-26T21:02:41.569Z,4.37
2023-02-26T21:05:10.546Z,4.39
2023-02-26T21:10:22.231Z,4.35
2023-02-26T21:12:52.118Z,4.39
2023-02-26T21:15:21.369Z,4.41
2023-02-26T21:17:49.788Z,4.48
2023-02-26T21:20:25.859Z,4.46
2023-02-26T21:22:57.872Z,4.47
2023-02-26T21:25:26.484Z,4.41
2023-02-26T21:27:55.349Z,4.42
2023-02-26T21:30:24.771Z,4.42
2023-02-26T21:32:55.922Z,4.38
2023-02-26T21:35:24.125Z,4.40
2023-02-26T21:37:54.142Z,4.38
2023-02-26T21:40:23.098Z,4.36
2023-02-26T21:42:51.593Z,4.32
2023-02-26T21:45:19.829Z,4.29
2023-02-26T21:47:47.809Z,4.25
2023-02-26T21:50:16.032Z,4.23
2023-02-26T21:52:44.316Z,4.22
2023-02-26T21:55:15.383Z,4.17
2023-02-26T21:57:43.828Z,4.14
2023-02-26T22:00:12.537Z,4.09
2023-02-26T22:02:42.099Z,3.98
2023-02-26T22:05:11.956Z,4.01
2023-02-26T22:07:43.669Z,3.98
2023-02-26T22:10:14.564Z,3.93
2023-02-26T22:12:43.627Z,3.95
2023-02-26T22:15:13.840Z,3.93
2023-02-26T22:17:44.534Z,3.84
2023-02-26T22:20:14.438Z,3.84
2023-02-26T22:22:42.664Z,3.83
2023-02-26T22:25:13.029Z,3.77
2023-02-26T22:27:41.357Z,3.75
2023-02-26T22:30:11.472Z,3.77
2023-02-26T22:32:40.296Z,3.78
2023-02-26T22:35:09.137Z,3.71
2023-02-26T22:37:40.402Z,3.66
2023-02-26T22:40:14.065Z,3.61
2023-02-26T22:42:43.801Z,3.64
2023-02-26T22:45:13.988Z,3.66
2023-02-26T22:47:48.516Z,3.67
2023-02-26T22:50:25.151Z,3.70
2023-02-26T22:52:53.687Z,3.69
2023-02-26T22:55:24.455Z,3.66
2023-02-26T22:57:52.584Z,3.60
2023-02-26T23:00:21.734Z,3.61
2023-02-26T23:02:51.582Z,3.57
2023-02-26T23:05:20.955Z,3.56
2023-02-26T23:07:51.155Z,3.48
2023-02-26T23:10:21.081Z,3.54
2023-02-26T23:12:49.550Z,3.53
2023-02-26T23:15:17.848Z,3.45
2023-02-26T23:17:46.495Z,3.46
2023-02-26T23:20:15.408Z,3.47
2023-02-26T23:22:44.176Z,3.46
2023-02-26T23:25:13.696Z,3.42
2023-02-26T23:27:42.600Z,3.42
2023-02-26T23:30:14.825Z,3.35
2023-02-26T23:32:43.302Z,3.37
2023-02-26T23:35:15.470Z,3.33
2023-02-26T23:37:43.975Z,3.35
2023-02-26T23:40:15.076Z,3.33
2023-02-26T23:43:09.425Z,3.29
2023-02-26T23:45:38.143Z,3.34
2023-02-26T23:48:07.472Z,3.36
2023-02-26T23:50:41.499Z,3.42
2023-02-26T23:53:09.767Z,3.42
2023-02-26T23:55:38.722Z,3.38
2023-02-26T23:58:12.818Z,3.42
